sensor_id;sensor_type;location;lat;lon;timestamp;temperature;humidity
16076;DHT22;8142;48.242;11.644;2023-04-30T00:00:20;11.80;99.90
16076;DHT22;8142;48.242;11.644;2023-04-30T00:02:46;11.80;99.90
16076;DHT22;8142;48.242;11.644;2023-04-30T00:05:11;11.80;99.90
16076;DHT22;8142;48.242;11.644;2023-04-30T00:07:37;11.70;99.90
16076;DHT22;8142;48.242;11.644;2023-04-30T00:10:10;11.60;99.90
16076;DHT22;8142;48.242;11.644;2023-04-30T00:12:36;11.50;99.90
16076;DHT22;8142;48.242;11.644;2023-04-30T00:15:02;11.30;99.90
16076;DHT22;8142;48.242;11.644;2023-04-30T00:17:29;11.20;99.90
16076;DHT22;8142;48.242;11.644;2023-04-30T00:19:54;11.10;99.90
16076;DHT22;8142;48.242;11.644;2023-04-30T00:22:20;11.00;99.90
16076;DHT22;8142;48.242;11.644;2023-04-30T00:24:46;10.90;99.90
16076;DHT22;8142;48.242;11.644;2023-04-30T00:27:12;10.80;99.90
16076;DHT22;8142;48.242;11.644;2023-04-30T00:29:38;10.70;99.90
16076;DHT22;8142;48.242;11.644;2023-04-30T00:32:04;10.60;99.90
16076;DHT22;8142;48.242;11.644;2023-04-30T00:34:30;10.60;99.90
16076;DHT22;8142;48.242;11.644;2023-04-30T00:36:56;10.60;99.90
16076;DHT22;8142;48.242;11.644;2023-04-30T00:39:22;10.50;99.90
16076;DHT22;8142;48.242;11.644;2023-04-30T00:41:48;10.50;99.90
16076;DHT22;8142;48.242;11.644;2023-04-30T00:44:14;10.60;99.90
16076;DHT22;8142;48.242;11.644;2023-04-30T00:46:40;10.60;99.90
16076;DHT22;8142;48.242;11.644;2023-04-30T00:49:06;10.60;99.90
16076;DHT22;8142;48.242;11.644;2023-04-30T00:51:33;10.70;99.90
16076;DHT22;8142;48.242;11.644;2023-04-30T00:54:00;10.70;99.90
16076;DHT22;8142;48.242;11.644;2023-04-30T00:56:28;10.80;99.90
16076;DHT22;8142;48.242;11.644;2023-04-30T00:58:55;10.80;99.90
16076;DHT22;8142;48.242;11.644;2023-04-30T01:01:28;10.80;99.90
16076;DHT22;8142;48.242;11.644;2023-04-30T01:03:54;10.90;99.90
16076;DHT22;8142;48.242;11.644;2023-04-30T01:06:20;10.90;99.90
16076;DHT22;8142;48.242;11.644;2023-04-30T01:08:47;10.90;99.90
16076;DHT22;8142;48.242;11.644;2023-04-30T01:16:34;11.00;99.90
16076;DHT22;8142;48.242;11.644;2023-04-30T01:19:28;11.00;99.90
16076;DHT22;8142;48.242;11.644;2023-04-30T01:22:03;11.00;99.90
16076;DHT22;8142;48.242;11.644;2023-04-30T01:27:06;11.00;99.90
16076;DHT22;8142;48.242;11.644;2023-04-30T01:29:38;11.00;99.90
16076;DHT22;8142;48.242;11.644;2023-04-30T01:32:06;11.00;99.90
16076;DHT22;8142;48.242;11.644;2023-04-30T01:34:32;11.00;99.90
16076;DHT22;8142;48.242;11.644;2023-04-30T01:40:23;11.00;99.90
16076;DHT22;8142;48.242;11.644;2023-04-30T01:43:04;11.00;99.90
16076;DHT22;8142;48.242;11.644;2023-04-30T01:51:24;11.10;99.90
16076;DHT22;8142;48.242;11.644;2023-04-30T01:53:56;11.10;99.90
16076;DHT22;8142;48.242;11.644;2023-04-30T01:56:36;11.10;99.90
16076;DHT22;8142;48.242;11.644;2023-04-30T01:59:05;11.10;99.90
16076;DHT22;8142;48.242;11.644;2023-04-30T02:01:31;11.20;99.90
16076;DHT22;8142;48.242;11.644;2023-04-30T02:03:58;11.20;99.90
16076;DHT22;8142;48.242;11.644;2023-04-30T02:06:25;11.20;99.90
16076;DHT22;8142;48.242;11.644;2023-04-30T02:08:55;11.20;99.90
16076;DHT22;8142;48.242;11.644;2023-04-30T02:11:24;11.20;99.90
16076;DHT22;8142;48.242;11.644;2023-04-30T02:13:50;11.20;99.90
16076;DHT22;8142;48.242;11.644;2023-04-30T02:16:16;11.30;99.90
16076;DHT22;8142;48.242;11.644;2023-04-30T02:18:42;11.20;99.90
16076;DHT22;8142;48.242;11.644;2023-04-30T02:21:07;11.20;99.90
16076;DHT22;8142;48.242;11.644;2023-04-30T02:23:33;11.20;99.90
16076;DHT22;8142;48.242;11.644;2023-04-30T02:25:59;11.20;99.90
16076;DHT22;8142;48.242;11.644;2023-04-30T02:28:25;11.20;99.90
16076;DHT22;8142;48.242;11.644;2023-04-30T02:30:51;11.30;99.90
16076;DHT22;8142;48.242;11.644;2023-04-30T02:33:17;11.20;99.90
16076;DHT22;8142;48.242;11.644;2023-04-30T02:35:42;11.20;99.90
16076;DHT22;8142;48.242;11.644;2023-04-30T02:38:08;11.20;99.90
16076;DHT22;8142;48.242;11.644;2023-04-30T02:40:34;11.20;99.90
16076;DHT22;8142;48.242;11.644;2023-04-30T02:43:00;11.10;99.90
16076;DHT22;8142;48.242;11.644;2023-04-30T02:45:26;11.10;99.90
16076;DHT22;8142;48.242;11.644;2023-04-30T02:47:52;11.10;99.90
16076;DHT22;8142;48.242;11.644;2023-04-30T02:50:18;11.10;99.90
16076;DHT22;8142;48.242;11.644;2023-04-30T02:52:45;11.10;99.90
16076;DHT22;8142;48.242;11.644;2023-04-30T02:55:11;11.10;99.90
16076;DHT22;8142;48.242;11.644;2023-04-30T02:57:38;11.10;99.90
16076;DHT22;8142;48.242;11.644;2023-04-30T03:00:04;11.00;99.90
16076;DHT22;8142;48.242;11.644;2023-04-30T03:02:30;11.10;99.90
16076;DHT22;8142;48.242;11.644;2023-04-30T03:04:56;11.00;99.90
16076;DHT22;8142;48.242;11.644;2023-04-30T03:07:22;11.00;99.90
16076;DHT22;8142;48.242;11.644;2023-04-30T03:09:48;11.00;99.90
16076;DHT22;8142;48.242;11.644;2023-04-30T03:12:13;11.00;99.90
16076;DHT22;8142;48.242;11.644;2023-04-30T03:14:40;10.90;99.90
16076;DHT22;8142;48.242;11.644;2023-04-30T03:17:06;10.90;99.90
16076;DHT22;8142;48.242;11.644;2023-04-30T03:19:32;10.90;99.90
16076;DHT22;8142;48.242;11.644;2023-04-30T03:21:58;10.90;99.90
16076;DHT22;8142;48.242;11.644;2023-04-30T03:24:24;10.80;99.90
16076;DHT22;8142;48.242;11.644;2023-04-30T03:26:50;10.80;99.90
16076;DHT22;8142;48.242;11.644;2023-04-30T03:29:16;10.80;99.90
16076;DHT22;8142;48.242;11.644;2023-04-30T03:31:41;10.80;99.90
16076;DHT22;8142;48.242;11.644;2023-04-30T03:34:08;10.70;99.90
16076;DHT22;8142;48.242;11.644;2023-04-30T03:36:33;10.70;99.90
16076;DHT22;8142;48.242;11.644;2023-04-30T03:39:00;10.70;99.90
16076;DHT22;8142;48.242;11.644;2023-04-30T03:41:26;10.70;99.90
16076;DHT22;8142;48.242;11.644;2023-04-30T03:43:52;10.70;99.90
16076;DHT22;8142;48.242;11.644;2023-04-30T03:46:19;10.70;99.90
16076;DHT22;8142;48.242;11.644;2023-04-30T03:48:44;10.70;99.90
16076;DHT22;8142;48.242;11.644;2023-04-30T03:51:10;10.70;99.90
16076;DHT22;8142;48.242;11.644;2023-04-30T03:53:36;10.70;99.90
16076;DHT22;8142;48.242;11.644;2023-04-30T03:56:03;10.70;99.90
16076;DHT22;8142;48.242;11.644;2023-04-30T03:58:29;10.70;99.90
16076;DHT22;8142;48.242;11.644;2023-04-30T04:00:55;10.70;99.90
16076;DHT22;8142;48.242;11.644;2023-04-30T04:03:21;10.70;99.90
16076;DHT22;8142;48.242;11.644;2023-04-30T04:05:48;10.60;99.90
16076;DHT22;8142;48.242;11.644;2023-04-30T04:08:13;10.70;99.90
16076;DHT22;8142;48.242;11.644;2023-04-30T04:10:39;10.70;99.90
16076;DHT22;8142;48.242;11.644;2023-04-30T04:13:06;10.70;99.90
16076;DHT22;8142;48.242;11.644;2023-04-30T04:15:32;10.70;99.90
16076;DHT22;8142;48.242;11.644;2023-04-30T04:17:59;10.70;99.90
16076;DHT22;8142;48.242;11.644;2023-04-30T04:20:25;10.70;99.90
16076;DHT22;8142;48.242;11.644;2023-04-30T04:22:52;10.70;99.90
16076;DHT22;8142;48.242;11.644;2023-04-30T04:25:18;10.80;99.90
16076;DHT22;8142;48.242;11.644;2023-04-30T04:27:45;10.80;99.90
16076;DHT22;8142;48.242;11.644;2023-04-30T04:30:11;10.80;99.90
16076;DHT22;8142;48.242;11.644;2023-04-30T04:32:38;10.80;99.90
16076;DHT22;8142;48.242;11.644;2023-04-30T04:35:13;10.80;99.90
16076;DHT22;8142;48.242;11.644;2023-04-30T04:37:38;10.80;99.90
16076;DHT22;8142;48.242;11.644;2023-04-30T04:40:05;10.80;99.90
16076;DHT22;8142;48.242;11.644;2023-04-30T04:42:33;10.80;99.90
16076;DHT22;8142;48.242;11.644;2023-04-30T04:44:59;10.80;99.90
16076;DHT22;8142;48.242;11.644;2023-04-30T04:47:25;10.80;99.90
16076;DHT22;8142;48.242;11.644;2023-04-30T04:49:52;10.90;99.90
16076;DHT22;8142;48.242;11.644;2023-04-30T04:52:17;10.80;99.90
16076;DHT22;8142;48.242;11.644;2023-04-30T04:54:43;10.90;99.90
16076;DHT22;8142;48.242;11.644;2023-04-30T04:57:09;10.90;99.90
16076;DHT22;8142;48.242;11.644;2023-04-30T04:59:36;10.90;99.90
16076;DHT22;8142;48.242;11.644;2023-04-30T05:02:03;10.90;99.90
16076;DHT22;8142;48.242;11.644;2023-04-30T05:04:29;10.90;99.90
16076;DHT22;8142;48.242;11.644;2023-04-30T05:06:55;10.90;99.90
16076;DHT22;8142;48.242;11.644;2023-04-30T05:09:21;10.90;99.90
16076;DHT22;8142;48.242;11.644;2023-04-30T05:11:47;11.00;99.90
16076;DHT22;8142;48.242;11.644;2023-04-30T05:14:14;10.90;99.90
16076;DHT22;8142;48.242;11.644;2023-04-30T05:16:39;10.90;99.90
16076;DHT22;8142;48.242;11.644;2023-04-30T05:19:05;11.00;99.90
16076;DHT22;8142;48.242;11.644;2023-04-30T05:21:34;11.00;99.90
16076;DHT22;8142;48.242;11.644;2023-04-30T05:24:01;11.00;99.90
16076;DHT22;8142;48.242;11.644;2023-04-30T05:26:27;11.00;99.90
16076;DHT22;8142;48.242;11.644;2023-04-30T05:28:53;11.00;99.90
16076;DHT22;8142;48.242;11.644;2023-04-30T05:31:19;11.00;99.90
16076;DHT22;8142;48.242;11.644;2023-04-30T05:33:45;11.10;99.90
16076;DHT22;8142;48.242;11.644;2023-04-30T05:36:11;11.10;99.90
16076;DHT22;8142;48.242;11.644;2023-04-30T05:38:37;11.10;99.90
16076;DHT22;8142;48.242;11.644;2023-04-30T05:41:03;11.10;99.90
16076;DHT22;8142;48.242;11.644;2023-04-30T05:43:28;11.10;99.90
16076;DHT22;8142;48.242;11.644;2023-04-30T05:45:54;11.10;99.90
16076;DHT22;8142;48.242;11.644;2023-04-30T05:48:20;11.10;99.90
16076;DHT22;8142;48.242;11.644;2023-04-30T05:50:46;11.10;99.90
16076;DHT22;8142;48.242;11.644;2023-04-30T05:53:12;11.10;99.90
16076;DHT22;8142;48.242;11.644;2023-04-30T05:55:38;11.10;99.90
16076;DHT22;8142;48.242;11.644;2023-04-30T05:58:04;11.10;99.90
16076;DHT22;8142;48.242;11.644;2023-04-30T06:00:30;11.10;99.90
16076;DHT22;8142;48.242;11.644;2023-04-30T06:02:56;11.10;99.90
16076;DHT22;8142;48.242;11.644;2023-04-30T06:05:22;11.10;99.90
16076;DHT22;8142;48.242;11.644;2023-04-30T06:07:48;11.10;99.90
16076;DHT22;8142;48.242;11.644;2023-04-30T06:10:14;11.20;99.90
16076;DHT22;8142;48.242;11.644;2023-04-30T06:12:40;11.20;99.90
16076;DHT22;8142;48.242;11.644;2023-04-30T06:15:06;11.30;99.90
16076;DHT22;8142;48.242;11.644;2023-04-30T06:17:32;11.30;99.90
16076;DHT22;8142;48.242;11.644;2023-04-30T06:19:58;11.40;99.90
16076;DHT22;8142;48.242;11.644;2023-04-30T06:22:29;11.40;99.90
16076;DHT22;8142;48.242;11.644;2023-04-30T06:24:55;11.50;99.90
16076;DHT22;8142;48.242;11.644;2023-04-30T06:27:22;11.70;99.90
16076;DHT22;8142;48.242;11.644;2023-04-30T06:29:48;11.60;99.90
16076;DHT22;8142;48.242;11.644;2023-04-30T06:32:14;11.70;99.90
16076;DHT22;8142;48.242;11.644;2023-04-30T06:34:39;11.70;99.90
16076;DHT22;8142;48.242;11.644;2023-04-30T06:37:05;11.90;99.90
16076;DHT22;8142;48.242;11.644;2023-04-30T06:39:31;11.90;99.90
16076;DHT22;8142;48.242;11.644;2023-04-30T06:41:57;11.90;99.90
16076;DHT22;8142;48.242;11.644;2023-04-30T06:44:23;12.00;99.90
16076;DHT22;8142;48.242;11.644;2023-04-30T06:46:49;12.10;99.90
16076;DHT22;8142;48.242;11.644;2023-04-30T06:49:15;12.20;99.90
16076;DHT22;8142;48.242;11.644;2023-04-30T06:51:41;12.30;99.90
16076;DHT22;8142;48.242;11.644;2023-04-30T06:54:07;12.40;99.90
16076;DHT22;8142;48.242;11.644;2023-04-30T06:56:33;12.50;99.90
16076;DHT22;8142;48.242;11.644;2023-04-30T06:58:59;12.60;99.90
16076;DHT22;8142;48.242;11.644;2023-04-30T07:01:25;12.80;99.90
16076;DHT22;8142;48.242;11.644;2023-04-30T07:03:51;12.90;99.90
16076;DHT22;8142;48.242;11.644;2023-04-30T07:06:19;13.00;99.90
16076;DHT22;8142;48.242;11.644;2023-04-30T07:08:45;13.10;99.90
16076;DHT22;8142;48.242;11.644;2023-04-30T07:11:11;13.20;99.90
16076;DHT22;8142;48.242;11.644;2023-04-30T07:13:38;13.40;99.90
16076;DHT22;8142;48.242;11.644;2023-04-30T07:16:04;13.50;99.90
16076;DHT22;8142;48.242;11.644;2023-04-30T07:18:30;13.70;99.90
16076;DHT22;8142;48.242;11.644;2023-04-30T07:20:56;13.90;99.90
16076;DHT22;8142;48.242;11.644;2023-04-30T07:23:22;14.10;99.90
16076;DHT22;8142;48.242;11.644;2023-04-30T07:25:48;14.30;99.90
16076;DHT22;8142;48.242;11.644;2023-04-30T07:28:14;14.40;99.90
16076;DHT22;8142;48.242;11.644;2023-04-30T07:30:40;14.50;99.90
16076;DHT22;8142;48.242;11.644;2023-04-30T07:33:06;14.60;99.90
16076;DHT22;8142;48.242;11.644;2023-04-30T07:35:33;14.70;99.90
16076;DHT22;8142;48.242;11.644;2023-04-30T07:37:59;14.80;99.90
16076;DHT22;8142;48.242;11.644;2023-04-30T07:40:25;14.90;99.90
16076;DHT22;8142;48.242;11.644;2023-04-30T07:42:50;14.90;99.90
16076;DHT22;8142;48.242;11.644;2023-04-30T07:45:16;14.70;99.90
16076;DHT22;8142;48.242;11.644;2023-04-30T07:47:42;14.60;99.90
16076;DHT22;8142;48.242;11.644;2023-04-30T07:50:09;14.30;99.90
16076;DHT22;8142;48.242;11.644;2023-04-30T07:52:35;14.10;99.90
16076;DHT22;8142;48.242;11.644;2023-04-30T07:55:01;14.00;99.90
16076;DHT22;8142;48.242;11.644;2023-04-30T07:57:27;13.80;99.90
16076;DHT22;8142;48.242;11.644;2023-04-30T07:59:53;13.70;99.90
16076;DHT22;8142;48.242;11.644;2023-04-30T08:02:19;13.60;99.90
16076;DHT22;8142;48.242;11.644;2023-04-30T08:04:45;13.60;99.90
16076;DHT22;8142;48.242;11.644;2023-04-30T08:07:11;13.60;99.90
16076;DHT22;8142;48.242;11.644;2023-04-30T08:09:37;13.60;99.90
16076;DHT22;8142;48.242;11.644;2023-04-30T08:12:03;13.70;99.90
16076;DHT22;8142;48.242;11.644;2023-04-30T08:14:31;13.80;99.90
16076;DHT22;8142;48.242;11.644;2023-04-30T08:16:57;13.90;99.90
16076;DHT22;8142;48.242;11.644;2023-04-30T08:19:25;14.00;99.90
16076;DHT22;8142;48.242;11.644;2023-04-30T08:21:52;14.10;99.90
16076;DHT22;8142;48.242;11.644;2023-04-30T08:24:17;14.20;99.90
16076;DHT22;8142;48.242;11.644;2023-04-30T08:26:43;14.20;99.90
16076;DHT22;8142;48.242;11.644;2023-04-30T08:29:09;14.30;99.90
16076;DHT22;8142;48.242;11.644;2023-04-30T08:31:35;14.40;99.90
16076;DHT22;8142;48.242;11.644;2023-04-30T08:34:01;14.40;99.90
16076;DHT22;8142;48.242;11.644;2023-04-30T08:36:27;14.50;99.90
16076;DHT22;8142;48.242;11.644;2023-04-30T08:38:53;14.50;99.90
16076;DHT22;8142;48.242;11.644;2023-04-30T08:41:23;14.70;99.90
16076;DHT22;8142;48.242;11.644;2023-04-30T08:43:51;14.80;99.90
16076;DHT22;8142;48.242;11.644;2023-04-30T08:46:19;15.00;99.90
16076;DHT22;8142;48.242;11.644;2023-04-30T08:48:47;15.00;99.90
16076;DHT22;8142;48.242;11.644;2023-04-30T08:51:13;15.00;99.90
16076;DHT22;8142;48.242;11.644;2023-04-30T08:53:41;14.90;99.90
16076;DHT22;8142;48.242;11.644;2023-04-30T08:56:14;14.90;99.90
16076;DHT22;8142;48.242;11.644;2023-04-30T08:58:43;14.90;99.90
16076;DHT22;8142;48.242;11.644;2023-04-30T09:01:09;14.80;99.90
16076;DHT22;8142;48.242;11.644;2023-04-30T09:03:36;14.80;99.90
16076;DHT22;8142;48.242;11.644;2023-04-30T09:06:02;14.80;99.90
16076;DHT22;8142;48.242;11.644;2023-04-30T09:08:44;14.70;99.90
16076;DHT22;8142;48.242;11.644;2023-04-30T09:11:25;14.60;99.90
16076;DHT22;8142;48.242;11.644;2023-04-30T09:13:57;14.60;99.90
16076;DHT22;8142;48.242;11.644;2023-04-30T09:16:24;14.50;99.90
16076;DHT22;8142;48.242;11.644;2023-04-30T09:18:51;14.50;99.90
16076;DHT22;8142;48.242;11.644;2023-04-30T09:21:33;14.60;99.90
16076;DHT22;8142;48.242;11.644;2023-04-30T09:24:01;14.50;99.90
16076;DHT22;8142;48.242;11.644;2023-04-30T09:26:36;14.50;99.90
16076;DHT22;8142;48.242;11.644;2023-04-30T09:29:03;14.50;99.90
16076;DHT22;8142;48.242;11.644;2023-04-30T09:31:33;14.50;99.90
16076;DHT22;8142;48.242;11.644;2023-04-30T09:33:59;14.50;99.90
16076;DHT22;8142;48.242;11.644;2023-04-30T09:36:25;14.50;99.90
16076;DHT22;8142;48.242;11.644;2023-04-30T09:38:52;14.50;99.90
16076;DHT22;8142;48.242;11.644;2023-04-30T09:41:26;14.40;99.90
16076;DHT22;8142;48.242;11.644;2023-04-30T09:43:56;14.40;99.90
16076;DHT22;8142;48.242;11.644;2023-04-30T09:46:30;14.40;99.90
16076;DHT22;8142;48.242;11.644;2023-04-30T09:48:59;14.50;99.90
16076;DHT22;8142;48.242;11.644;2023-04-30T09:51:26;14.50;99.90
16076;DHT22;8142;48.242;11.644;2023-04-30T09:53:52;14.50;99.90
16076;DHT22;8142;48.242;11.644;2023-04-30T09:56:23;14.50;99.90
16076;DHT22;8142;48.242;11.644;2023-04-30T09:58:52;14.50;99.90
16076;DHT22;8142;48.242;11.644;2023-04-30T10:01:20;14.50;99.90
16076;DHT22;8142;48.242;11.644;2023-04-30T10:03:46;14.50;99.90
16076;DHT22;8142;48.242;11.644;2023-04-30T10:06:14;14.50;99.90
16076;DHT22;8142;48.242;11.644;2023-04-30T10:08:42;14.60;99.90
16076;DHT22;8142;48.242;11.644;2023-04-30T10:11:09;14.50;99.90
16076;DHT22;8142;48.242;11.644;2023-04-30T10:14:02;14.50;99.90
16076;DHT22;8142;48.242;11.644;2023-04-30T10:16:58;14.40;99.90
16076;DHT22;8142;48.242;11.644;2023-04-30T10:19:33;14.30;99.90
16076;DHT22;8142;48.242;11.644;2023-04-30T10:22:01;14.30;99.90
16076;DHT22;8142;48.242;11.644;2023-04-30T10:24:27;14.30;99.90
16076;DHT22;8142;48.242;11.644;2023-04-30T10:26:54;14.30;99.90
16076;DHT22;8142;48.242;11.644;2023-04-30T10:29:22;14.30;99.90
16076;DHT22;8142;48.242;11.644;2023-04-30T10:31:49;14.20;99.90
16076;DHT22;8142;48.242;11.644;2023-04-30T10:37:23;14.30;99.90
16076;DHT22;8142;48.242;11.644;2023-04-30T10:39:53;14.40;99.90
16076;DHT22;8142;48.242;11.644;2023-04-30T10:42:19;14.50;99.90
16076;DHT22;8142;48.242;11.644;2023-04-30T10:44:45;14.50;99.90
16076;DHT22;8142;48.242;11.644;2023-04-30T10:47:10;14.60;99.90
16076;DHT22;8142;48.242;11.644;2023-04-30T10:49:36;14.70;99.90
16076;DHT22;8142;48.242;11.644;2023-04-30T10:52:03;14.80;99.90
16076;DHT22;8142;48.242;11.644;2023-04-30T10:54:34;14.80;99.90
16076;DHT22;8142;48.242;11.644;2023-04-30T10:57:14;14.90;99.90
16076;DHT22;8142;48.242;11.644;2023-04-30T10:59:43;15.00;99.90
16076;DHT22;8142;48.242;11.644;2023-04-30T11:02:11;15.00;99.90
16076;DHT22;8142;48.242;11.644;2023-04-30T11:07:32;15.10;99.90
16076;DHT22;8142;48.242;11.644;2023-04-30T11:10:00;15.10;99.90
16076;DHT22;8142;48.242;11.644;2023-04-30T11:12:27;15.10;99.90
16076;DHT22;8142;48.242;11.644;2023-04-30T11:15:11;15.10;99.90
16076;DHT22;8142;48.242;11.644;2023-04-30T11:17:37;15.10;99.90
16076;DHT22;8142;48.242;11.644;2023-04-30T11:20:04;15.10;99.90
16076;DHT22;8142;48.242;11.644;2023-04-30T11:22:30;15.10;99.90
16076;DHT22;8142;48.242;11.644;2023-04-30T11:25:05;15.10;99.90
16076;DHT22;8142;48.242;11.644;2023-04-30T11:27:32;15.10;99.90
16076;DHT22;8142;48.242;11.644;2023-04-30T11:29:59;15.20;99.90
16076;DHT22;8142;48.242;11.644;2023-04-30T11:32:31;15.20;99.90
16076;DHT22;8142;48.242;11.644;2023-04-30T11:34:59;15.20;99.90
16076;DHT22;8142;48.242;11.644;2023-04-30T11:37:41;15.20;99.90
16076;DHT22;8142;48.242;11.644;2023-04-30T11:40:14;15.30;99.90
16076;DHT22;8142;48.242;11.644;2023-04-30T11:42:41;15.40;99.90
16076;DHT22;8142;48.242;11.644;2023-04-30T11:45:13;15.30;99.90
16076;DHT22;8142;48.242;11.644;2023-04-30T11:47:47;15.40;99.90
16076;DHT22;8142;48.242;11.644;2023-04-30T11:50:15;15.30;99.90
16076;DHT22;8142;48.242;11.644;2023-04-30T11:52:48;15.50;99.90
16076;DHT22;8142;48.242;11.644;2023-04-30T11:55:15;15.40;99.90
16076;DHT22;8142;48.242;11.644;2023-04-30T11:57:43;15.50;99.90
16076;DHT22;8142;48.242;11.644;2023-04-30T12:00:10;15.50;99.90
16076;DHT22;8142;48.242;11.644;2023-04-30T12:02:36;15.40;99.90
16076;DHT22;8142;48.242;11.644;2023-04-30T12:05:03;15.50;99.90
16076;DHT22;8142;48.242;11.644;2023-04-30T12:07:29;15.40;99.90
16076;DHT22;8142;48.242;11.644;2023-04-30T12:09:55;15.40;99.90
16076;DHT22;8142;48.242;11.644;2023-04-30T12:12:30;15.30;99.90
16076;DHT22;8142;48.242;11.644;2023-04-30T12:14:56;15.30;99.90
16076;DHT22;8142;48.242;11.644;2023-04-30T12:17:34;15.20;99.90
16076;DHT22;8142;48.242;11.644;2023-04-30T12:20:01;15.20;99.90
16076;DHT22;8142;48.242;11.644;2023-04-30T12:22:27;15.20;99.90
16076;DHT22;8142;48.242;11.644;2023-04-30T12:24:54;15.10;99.90
16076;DHT22;8142;48.242;11.644;2023-04-30T12:27:21;15.10;99.90
16076;DHT22;8142;48.242;11.644;2023-04-30T12:29:47;15.10;99.90
16076;DHT22;8142;48.242;11.644;2023-04-30T12:32:18;15.20;99.90
16076;DHT22;8142;48.242;11.644;2023-04-30T12:34:44;15.20;99.90
16076;DHT22;8142;48.242;11.644;2023-04-30T12:37:10;15.10;99.90
16076;DHT22;8142;48.242;11.644;2023-04-30T12:39:36;15.10;99.90
16076;DHT22;8142;48.242;11.644;2023-04-30T12:42:02;15.00;99.90
16076;DHT22;8142;48.242;11.644;2023-04-30T12:44:28;15.00;99.90
16076;DHT22;8142;48.242;11.644;2023-04-30T12:46:56;14.90;99.90
16076;DHT22;8142;48.242;11.644;2023-04-30T12:49:29;14.90;99.90
16076;DHT22;8142;48.242;11.644;2023-04-30T12:52:03;14.90;99.90
16076;DHT22;8142;48.242;11.644;2023-04-30T12:54:30;14.90;99.90
16076;DHT22;8142;48.242;11.644;2023-04-30T12:57:07;15.00;99.90
16076;DHT22;8142;48.242;11.644;2023-04-30T12:59:36;15.10;99.90
16076;DHT22;8142;48.242;11.644;2023-04-30T13:02:13;15.10;99.90
16076;DHT22;8142;48.242;11.644;2023-04-30T13:04:40;15.20;99.90
16076;DHT22;8142;48.242;11.644;2023-04-30T13:07:06;15.30;99.90
16076;DHT22;8142;48.242;11.644;2023-04-30T13:09:34;15.30;99.90
16076;DHT22;8142;48.242;11.644;2023-04-30T13:12:00;15.30;99.90
16076;DHT22;8142;48.242;11.644;2023-04-30T13:14:26;15.40;99.90
16076;DHT22;8142;48.242;11.644;2023-04-30T13:16:52;15.40;99.90
16076;DHT22;8142;48.242;11.644;2023-04-30T13:19:21;15.50;99.90
16076;DHT22;8142;48.242;11.644;2023-04-30T13:21:47;15.50;99.90
16076;DHT22;8142;48.242;11.644;2023-04-30T13:24:13;15.50;99.90
16076;DHT22;8142;48.242;11.644;2023-04-30T13:26:39;15.60;99.90
16076;DHT22;8142;48.242;11.644;2023-04-30T13:29:05;15.60;99.90
16076;DHT22;8142;48.242;11.644;2023-04-30T13:31:31;15.60;99.90
16076;DHT22;8142;48.242;11.644;2023-04-30T13:33:57;15.50;99.90
16076;DHT22;8142;48.242;11.644;2023-04-30T13:36:22;15.50;99.90
16076;DHT22;8142;48.242;11.644;2023-04-30T13:38:48;15.50;99.90
16076;DHT22;8142;48.242;11.644;2023-04-30T13:41:14;15.50;99.90
16076;DHT22;8142;48.242;11.644;2023-04-30T13:43:40;15.40;99.90
16076;DHT22;8142;48.242;11.644;2023-04-30T13:46:07;15.40;99.90
16076;DHT22;8142;48.242;11.644;2023-04-30T13:48:33;15.50;99.90
16076;DHT22;8142;48.242;11.644;2023-04-30T13:51:00;15.40;99.90
16076;DHT22;8142;48.242;11.644;2023-04-30T13:53:26;15.40;99.90
16076;DHT22;8142;48.242;11.644;2023-04-30T13:55:52;15.40;99.90
16076;DHT22;8142;48.242;11.644;2023-04-30T13:58:18;15.40;99.90
16076;DHT22;8142;48.242;11.644;2023-04-30T14:00:44;15.50;99.90
16076;DHT22;8142;48.242;11.644;2023-04-30T14:03:10;15.50;99.90
16076;DHT22;8142;48.242;11.644;2023-04-30T14:05:36;15.50;99.90
16076;DHT22;8142;48.242;11.644;2023-04-30T14:08:03;15.50;99.90
16076;DHT22;8142;48.242;11.644;2023-04-30T14:10:29;15.50;99.90
16076;DHT22;8142;48.242;11.644;2023-04-30T14:12:55;15.50;99.90
16076;DHT22;8142;48.242;11.644;2023-04-30T14:15:21;15.50;99.90
16076;DHT22;8142;48.242;11.644;2023-04-30T14:17:47;15.40;99.90
16076;DHT22;8142;48.242;11.644;2023-04-30T14:20:13;15.40;99.90
16076;DHT22;8142;48.242;11.644;2023-04-30T14:22:38;15.40;99.90
16076;DHT22;8142;48.242;11.644;2023-04-30T14:25:05;15.40;99.90
16076;DHT22;8142;48.242;11.644;2023-04-30T14:27:31;15.40;99.90
16076;DHT22;8142;48.242;11.644;2023-04-30T14:29:57;15.30;99.90
16076;DHT22;8142;48.242;11.644;2023-04-30T14:32:26;15.30;99.90
16076;DHT22;8142;48.242;11.644;2023-04-30T14:34:52;15.30;99.90
16076;DHT22;8142;48.242;11.644;2023-04-30T14:37:19;15.30;99.90
16076;DHT22;8142;48.242;11.644;2023-04-30T14:39:44;15.30;99.90
16076;DHT22;8142;48.242;11.644;2023-04-30T14:42:10;15.30;99.90
16076;DHT22;8142;48.242;11.644;2023-04-30T14:44:37;15.30;99.90
16076;DHT22;8142;48.242;11.644;2023-04-30T14:47:03;15.40;99.90
16076;DHT22;8142;48.242;11.644;2023-04-30T14:49:29;15.30;99.90
16076;DHT22;8142;48.242;11.644;2023-04-30T14:51:56;15.30;99.90
16076;DHT22;8142;48.242;11.644;2023-04-30T14:54:22;15.30;99.90
16076;DHT22;8142;48.242;11.644;2023-04-30T14:56:48;15.20;99.90
16076;DHT22;8142;48.242;11.644;2023-04-30T14:59:14;15.30;99.90
16076;DHT22;8142;48.242;11.644;2023-04-30T15:01:40;15.40;99.90
16076;DHT22;8142;48.242;11.644;2023-04-30T15:04:07;15.30;99.90
16076;DHT22;8142;48.242;11.644;2023-04-30T15:06:32;15.30;99.90
16076;DHT22;8142;48.242;11.644;2023-04-30T15:08:59;15.30;99.90
16076;DHT22;8142;48.242;11.644;2023-04-30T15:11:25;15.30;99.90
16076;DHT22;8142;48.242;11.644;2023-04-30T15:13:52;15.20;99.90
16076;DHT22;8142;48.242;11.644;2023-04-30T15:16:19;15.20;99.90
16076;DHT22;8142;48.242;11.644;2023-04-30T15:18:45;15.10;99.90
16076;DHT22;8142;48.242;11.644;2023-04-30T15:21:11;15.10;99.90
16076;DHT22;8142;48.242;11.644;2023-04-30T15:23:37;15.10;99.90
16076;DHT22;8142;48.242;11.644;2023-04-30T15:26:03;15.10;99.90
16076;DHT22;8142;48.242;11.644;2023-04-30T15:28:30;15.20;99.90
16076;DHT22;8142;48.242;11.644;2023-04-30T15:30:57;15.10;99.90
16076;DHT22;8142;48.242;11.644;2023-04-30T15:33:25;15.20;99.90
16076;DHT22;8142;48.242;11.644;2023-04-30T15:35:53;15.20;99.90
16076;DHT22;8142;48.242;11.644;2023-04-30T15:38:20;15.20;99.90
16076;DHT22;8142;48.242;11.644;2023-04-30T15:40:46;15.20;99.90
16076;DHT22;8142;48.242;11.644;2023-04-30T15:43:12;15.30;99.90
16076;DHT22;8142;48.242;11.644;2023-04-30T15:45:39;15.20;99.90
16076;DHT22;8142;48.242;11.644;2023-04-30T15:48:05;15.30;99.90
16076;DHT22;8142;48.242;11.644;2023-04-30T15:50:31;15.30;99.90
16076;DHT22;8142;48.242;11.644;2023-04-30T15:52:57;15.20;99.90